createdAt,value
2018-05-01T00:00:11.214Z,957.42
2018-05-01T00:01:11.223Z,957.54
2018-05-01T00:02:11.115Z,957.43
2018-05-01T00:03:11.066Z,957.49
2018-05-01T00:04:11.017Z,957.39
2018-05-01T00:05:10.963Z,957.49
2018-05-01T00:06:10.964Z,957.38
2018-05-01T00:07:10.875Z,957.42
2018-05-01T00:08:10.821Z,957.45
2018-05-01T00:09:10.765Z,957.40
2018-05-01T00:10:10.715Z,957.57
2018-05-01T00:11:10.710Z,957.46
2018-05-01T00:12:10.622Z,957.56
2018-05-01T00:13:10.619Z,957.46
2018-05-01T00:14:10.518Z,957.53
2018-05-01T00:15:10.470Z,957.49
2018-05-01T00:16:10.425Z,957.47
2018-05-01T00:17:10.370Z,957.49
2018-05-01T00:18:10.381Z,957.58
2018-05-01T00:19:10.273Z,957.49
2018-05-01T00:20:10.218Z,957.55
2018-05-01T00:21:10.180Z,957.60
2018-05-01T00:22:10.119Z,957.59
2018-05-01T00:23:10.115Z,957.69
2018-05-01T00:24:10.035Z,957.67
2018-05-01T00:25:09.976Z,957.61
2018-05-01T00:26:09.919Z,957.85
2018-05-01T00:27:09.877Z,957.72
2018-05-01T00:28:09.871Z,957.71
2018-05-01T00:29:09.774Z,957.67
2018-05-01T00:30:09.771Z,957.78
2018-05-01T00:31:09.674Z,957.71
2018-05-01T00:32:09.635Z,957.74
2018-05-01T00:33:09.628Z,957.72
2018-05-01T00:34:09.528Z,957.73
2018-05-01T00:35:09.474Z,957.70
2018-05-01T00:36:09.431Z,957.73
2018-05-01T00:37:09.377Z,957.60
2018-05-01T00:38:09.366Z,957.60
2018-05-01T00:39:09.275Z,957.62
2018-05-01T00:40:09.228Z,957.59
2018-05-01T00:41:09.187Z,957.60
2018-05-01T00:42:09.172Z,957.69
2018-05-01T00:43:09.078Z,957.69
2018-05-01T00:44:09.040Z,957.71
2018-05-01T00:45:09.003Z,957.66
2018-05-01T00:46:08.933Z,957.68
2018-05-01T00:47:08.910Z,957.60
2018-05-01T00:48:08.828Z,957.63
2018-05-01T00:49:08.779Z,957.59
2018-05-01T00:50:08.725Z,957.56
2018-05-01T00:51:08.675Z,957.59
2018-05-01T00:52:08.662Z,957.48
2018-05-01T00:53:08.581Z,957.48
2018-05-01T00:54:08.534Z,957.50
2018-05-01T00:55:08.513Z,957.47
2018-05-01T00:56:08.429Z,957.46
2018-05-01T00:57:08.376Z,957.49
2018-05-01T00:58:08.375Z,957.47
2018-05-01T00:59:08.279Z,957.46
2018-05-01T01:00:08.233Z,957.42
2018-05-01T01:01:08.226Z,957.42
2018-05-01T01:02:08.129Z,957.47
2018-05-01T01:03:08.087Z,957.47
2018-05-01T01:04:08.038Z,957.41
2018-05-01T01:05:07.976Z,957.44
2018-05-01T01:06:07.961Z,957.45
2018-05-01T01:07:07.886Z,957.52
2018-05-01T01:08:07.833Z,957.56
2018-05-01T01:09:07.830Z,957.57
2018-05-01T01:10:07.735Z,957.49
2018-05-01T01:11:07.720Z,957.48
2018-05-01T01:12:07.635Z,957.47
2018-05-01T01:13:07.588Z,957.46
2018-05-01T01:14:07.530Z,957.50
2018-05-01T01:15:07.522Z,957.47
2018-05-01T01:16:07.431Z,957.40
2018-05-01T01:17:07.419Z,957.61
2018-05-01T01:18:07.328Z,957.39
2018-05-01T01:19:07.283Z,957.47
2018-05-01T01:20:07.225Z,957.41
2018-05-01T01:21:07.177Z,957.49
2018-05-01T01:22:07.176Z,957.45
2018-05-01T01:23:07.081Z,957.52
2018-05-01T01:24:07.027Z,957.42
2018-05-01T01:25:06.985Z,957.52
2018-05-01T01:26:06.930Z,957.51
2018-05-01T01:27:06.910Z,957.64
2018-05-01T01:28:06.826Z,957.73
2018-05-01T01:29:06.777Z,957.76
2018-05-01T01:30:06.725Z,957.57
2018-05-01T01:31:06.730Z,957.68
2018-05-01T01:32:06.630Z,957.80
2018-05-01T01:33:06.577Z,957.78
2018-05-01T01:34:06.531Z,957.71
2018-05-01T01:35:06.596Z,957.82
2018-05-01T01:36:06.473Z,957.82
2018-05-01T01:37:06.375Z,957.77
2018-05-01T01:38:06.336Z,957.75
2018-05-01T01:39:06.283Z,957.73
2018-05-01T01:40:06.228Z,957.74
2018-05-01T01:41:06.225Z,957.64
2018-05-01T01:42:06.145Z,957.70
2018-05-01T01:43:06.072Z,957.79
2018-05-01T01:44:06.027Z,957.76
2018-05-01T01:45:06.008Z,957.72
2018-05-01T01:46:05.928Z,957.66
2018-05-01T01:47:05.876Z,957.71
2018-05-01T01:48:05.829Z,957.74
2018-05-01T01:49:05.876Z,957.68
2018-05-01T01:50:05.724Z,957.77
2018-05-01T01:51:05.708Z,957.76
2018-05-01T01:52:05.657Z,957.79
2018-05-01T01:53:05.567Z,957.84
2018-05-01T01:54:05.518Z,957.80
2018-05-01T01:55:05.464Z,957.89
2018-05-01T01:56:05.414Z,957.87
2018-05-01T01:57:05.404Z,957.91
2018-05-01T01:58:05.313Z,957.92
2018-05-01T01:59:05.266Z,958.02
2018-05-01T02:00:05.208Z,958.00
2018-05-01T02:01:05.158Z,958.01
2018-05-01T02:02:05.163Z,958.00
2018-05-01T02:03:05.062Z,957.90
2018-05-01T02:04:05.029Z,957.98
2018-05-01T02:05:04.960Z,958.01
2018-05-01T02:06:04.908Z,957.95
2018-05-01T02:07:04.910Z,957.85
2018-05-01T02:08:04.810Z,957.97
2018-05-01T02:09:04.753Z,957.99
2018-05-01T02:10:04.727Z,958.01
2018-05-01T02:11:04.704Z,958.00
2018-05-01T02:12:04.603Z,958.01
2018-05-01T02:13:04.558Z,958.03
2018-05-01T02:14:04.504Z,957.99
2018-05-01T02:15:04.507Z,957.98
2018-05-01T02:16:04.402Z,958.02
2018-05-01T02:17:04.354Z,958.01
2018-05-01T02:18:04.299Z,958.08
2018-05-01T02:19:04.248Z,958.08
2018-05-01T02:20:04.234Z,958.15
2018-05-01T02:21:04.187Z,958.16
2018-05-01T02:22:04.195Z,958.27
2018-05-01T02:23:04.047Z,958.31
2018-05-01T02:24:03.992Z,958.17
2018-05-01T02:25:03.941Z,958.18
2018-05-01T02:26:03.893Z,958.20
2018-05-01T02:27:03.876Z,958.18
2018-05-01T02:28:03.791Z,958.28
2018-05-01T02:29:03.740Z,958.22
2018-05-01T02:30:03.688Z,958.30
2018-05-01T02:31:03.685Z,958.34
2018-05-01T02:32:03.625Z,958.27
2018-05-01T02:33:03.542Z,958.37
2018-05-01T02:34:03.523Z,958.42
2018-05-01T02:35:03.433Z,958.41
2018-05-01T02:36:03.384Z,958.42
2018-05-01T02:37:03.327Z,958.53
2018-05-01T02:38:03.279Z,958.35
2018-05-01T02:39:03.284Z,958.37
2018-05-01T02:40:03.181Z,958.41
2018-05-01T02:41:03.130Z,958.36
2018-05-01T02:42:03.080Z,958.38
2018-05-01T02:43:03.021Z,958.37
2018-05-01T02:44:03.015Z,958.43
2018-05-01T02:45:02.925Z,958.38
2018-05-01T02:46:02.882Z,958.46
2018-05-01T02:47:02.827Z,958.37
2018-05-01T02:48:02.772Z,958.45
2018-05-01T02:49:02.755Z,958.45
2018-05-01T02:50:02.697Z,958.54
2018-05-01T02:51:02.614Z,958.51
2018-05-01T02:52:02.568Z,958.45
2018-05-01T02:53:02.519Z,958.57
2018-05-01T02:54:02.465Z,958.47
2018-05-01T02:55:02.452Z,958.51
2018-05-01T02:56:02.358Z,958.62
2018-05-01T02:57:02.306Z,958.46
2018-05-01T02:58:02.254Z,958.43
2018-05-01T02:59:02.203Z,958.64
2018-05-01T03:00:02.177Z,958.51
2018-05-01T03:01:02.109Z,958.57
2018-05-01T03:02:02.062Z,958.50
2018-05-01T03:03:02.040Z,958.52
2018-05-01T03:04:01.952Z,958.52
2018-05-01T03:05:01.932Z,958.62
2018-05-01T03:06:01.886Z,958.62
2018-05-01T03:07:01.801Z,958.68
2018-05-01T03:08:01.748Z,958.62
2018-05-01T03:09:01.698Z,958.73
2018-05-01T03:10:01.647Z,958.76
2018-05-01T03:11:01.618Z,958.80
2018-05-01T03:12:01.534Z,958.79
2018-05-01T03:13:01.484Z,958.80
2018-05-01T03:14:01.435Z,958.79
2018-05-01T03:15:01.549Z,958.75
2018-05-01T03:16:01.327Z,958.86
2018-05-01T03:17:01.285Z,958.81
2018-05-01T03:18:01.248Z,958.83
2018-05-01T03:19:01.188Z,958.78
2018-05-01T03:20:01.166Z,958.80
2018-05-01T03:21:01.068Z,958.84
2018-05-01T03:22:01.058Z,958.83
2018-05-01T03:23:01.030Z,958.82
2018-05-01T03:24:00.921Z,958.81
2018-05-01T03:25:00.863Z,958.83
2018-05-01T03:26:00.808Z,958.89
2018-05-01T03:27:00.808Z,958.85
2018-05-01T03:28:00.723Z,958.77
2018-05-01T03:29:00.663Z,958.80
2018-05-01T03:30:00.640Z,958.78
2018-05-01T03:31:00.554Z,958.91
2018-05-01T03:32:00.503Z,958.91
2018-05-01T03:33:00.450Z,958.93
2018-05-01T03:34:00.402Z,958.96
2018-05-01T03:35:00.381Z,958.99
2018-05-01T03:36:00.301Z,958.97
2018-05-01T03:37:00.239Z,958.97
2018-05-01T03:38:00.220Z,959.02
2018-05-01T03:39:00.200Z,959.04
2018-05-01T03:40:00.093Z,959.16
2018-05-01T03:41:00.034Z,959.10
2018-05-01T03:41:59.980Z,959.05
2018-05-01T03:42:59.966Z,959.13
2018-05-01T03:43:59.882Z,959.03
2018-05-01T03:44:59.861Z,959.14
2018-05-01T03:45:59.775Z,959.20
2018-05-01T03:46:59.725Z,959.06
2018-05-01T03:47:59.673Z,959.15
2018-05-01T03:48:59.617Z,959.10
2018-05-01T03:49:59.600Z,959.16
2018-05-01T03:50:59.510Z,959.09
2018-05-01T03:51:59.496Z,959.10
2018-05-01T03:52:59.410Z,959.18
2018-05-01T03:53:59.393Z,959.21
2018-05-01T03:54:59.305Z,959.25
2018-05-01T03:55:59.332Z,959.25
2018-05-01T03:56:59.313Z,959.27
2018-05-01T03:57:59.154Z,959.19
2018-05-01T03:58:59.138Z,959.19
2018-05-01T03:59:59.046Z,959.17
2018-05-01T04:00:59.024Z,959.18
2018-05-01T04:01:58.940Z,959.15
2018-05-01T04:02:58.919Z,959.18
2018-05-01T04:03:58.846Z,959.20
2018-05-01T04:04:58.784Z,959.20
2018-05-01T04:05:58.731Z,959.13
2018-05-01T04:06:58.682Z,959.24
2018-05-01T04:07:58.662Z,959.26
2018-05-01T04:08:58.576Z,959.25
2018-05-01T04:09:58.523Z,959.28
2018-05-01T04:10:58.470Z,959.32
2018-05-01T04:11:58.418Z,959.40
2018-05-01T04:12:58.405Z,959.20
2018-05-01T04:13:58.315Z,959.31
2018-05-01T04:14:58.262Z,959.30
2018-05-01T04:15:58.208Z,959.28
2018-05-01T04:16:58.193Z,959.34
2018-05-01T04:17:58.111Z,959.34
2018-05-01T04:18:58.053Z,959.26
2018-05-01T04:19:58.007Z,959.32
2018-05-01T04:20:57.948Z,959.30
2018-05-01T04:21:57.941Z,959.35
2018-05-01T04:22:57.856Z,959.34
2018-05-01T04:23:57.797Z,959.43
2018-05-01T04:24:57.738Z,959.37
2018-05-01T04:25:57.688Z,959.35
2018-05-01T04:26:57.690Z,959.40
2018-05-01T04:27:57.584Z,959.38
2018-05-01T04:28:57.527Z,959.38
2018-05-01T04:29:57.476Z,959.49
2018-05-01T04:30:57.437Z,959.46
2018-05-01T04:31:57.420Z,959.46
2018-05-01T04:32:57.324Z,959.48
2018-05-01T04:33:57.274Z,959.46
2018-05-01T04:34:57.220Z,959.55
2018-05-01T04:35:57.168Z,959.50
2018-05-01T04:36:57.146Z,959.51
2018-05-01T04:37:57.111Z,959.56
2018-05-01T04:38:57.007Z,959.57
2018-05-01T04:39:56.951Z,959.64
2018-05-01T04:40:56.899Z,959.66
2018-05-01T04:41:56.848Z,959.65
2018-05-01T04:42:56.842Z,959.69
2018-05-01T04:43:56.754Z,959.65
2018-05-01T04:44:56.690Z,959.70
2018-05-01T04:45:56.647Z,959.73
2018-05-01T04:46:56.610Z,959.79
2018-05-01T04:47:56.568Z,959.74
2018-05-01T04:48:56.484Z,959.80
2018-05-01T04:49:56.431Z,959.81
2018-05-01T04:50:56.379Z,959.80
2018-05-01T04:51:56.359Z,959.78
2018-05-01T04:52:56.277Z,959.72
2018-05-01T04:53:56.217Z,959.79
2018-05-01T04:54:56.172Z,959.79
2018-05-01T04:55:56.172Z,959.81
2018-05-01T04:56:56.062Z,959.82
2018-05-01T04:57:56.011Z,959.82
2018-05-01T04:58:55.956Z,959.86
2018-05-01T04:59:55.913Z,959.91
2018-05-01T05:00:55.898Z,959.89
2018-05-01T05:01:55.815Z,959.86
2018-05-01T05:02:55.786Z,959.88
2018-05-01T05:03:55.697Z,959.92
2018-05-01T05:04:55.658Z,959.92
2018-05-01T05:05:55.599Z,959.94
2018-05-01T05:06:55.581Z,959.96
2018-05-01T05:07:55.496Z,959.96
2018-05-01T05:08:55.436Z,959.95
2018-05-01T05:09:55.436Z,959.96
2018-05-01T05:10:55.333Z,959.92
2018-05-01T05:11:55.295Z,960.00
2018-05-01T05:12:55.238Z,960.02
2018-05-01T05:13:55.181Z,960.05
2018-05-01T05:14:55.154Z,960.09
2018-05-01T05:15:55.079Z,960.06
2018-05-01T05:16:55.030Z,960.03
2018-05-01T05:17:54.997Z,960.01
2018-05-01T05:18:54.916Z,960.05
2018-05-01T05:19:54.864Z,960.15
2018-05-01T05:20:54.815Z,960.15
2018-05-01T05:21:54.769Z,960.14
2018-05-01T05:22:54.753Z,960.13
2018-05-01T05:23:54.650Z,960.11
2018-05-01T05:24:54.605Z,960.17
2018-05-01T05:25:54.598Z,960.14
2018-05-01T05:26:54.507Z,960.18
2018-05-01T05:27:54.454Z,960.12
2018-05-01T05:28:54.400Z,960.17
2018-05-01T05:29:54.351Z,960.24
2018-05-01T05:30:54.322Z,960.24
2018-05-01T05:31:54.243Z,960.28
2018-05-01T05:32:54.231Z,960.24
2018-05-01T05:33:54.139Z,960.20
2018-05-01T05:34:54.089Z,960.25
2018-05-01T05:35:54.041Z,960.23
2018-05-01T05:36:53.976Z,960.25
2018-05-01T05:37:53.959Z,960.25
2018-05-01T05:38:53.874Z,960.27
2018-05-01T05:39:53.827Z,960.27
2018-05-01T05:40:53.782Z,960.30
2018-05-01T05:41:53.761Z,960.30
2018-05-01T05:42:53.746Z,960.29
2018-05-01T05:43:53.609Z,960.31
2018-05-01T05:44:53.559Z,960.33
2018-05-01T05:45:53.520Z,960.35
2018-05-01T05:46:53.511Z,960.35
2018-05-01T05:47:53.405Z,960.37
2018-05-01T05:48:53.370Z,960.38
2018-05-01T05:49:53.375Z,960.32
2018-05-01T05:50:53.244Z,960.49
2018-05-01T05:51:53.236Z,960.43
2018-05-01T05:52:53.137Z,960.41
2018-05-01T05:53:53.082Z,960.50
2018-05-01T05:54:53.039Z,960.44
2018-05-01T05:55:52.985Z,960.45
2018-05-01T05:56:52.963Z,960.49
2018-05-01T05:57:52.912Z,960.50
2018-05-01T05:58:52.823Z,960.47
2018-05-01T05:59:52.785Z,960.45
2018-05-01T06:00:52.719Z,960.45
2018-05-01T06:01:52.667Z,960.44
2018-05-01T06:02:52.647Z,960.46
2018-05-01T06:03:52.559Z,960.47
2018-05-01T06:04:52.518Z,960.49
2018-05-01T06:05:52.455Z,960.48
2018-05-01T06:06:52.409Z,960.49
2018-05-01T06:07:52.418Z,960.50
2018-05-01T06:08:52.301Z,960.55
2018-05-01T06:09:52.245Z,960.59
2018-05-01T06:10:52.205Z,960.59
2018-05-01T06:11:52.146Z,960.62
2018-05-01T06:12:52.143Z,960.61
2018-05-01T06:13:52.035Z,960.66
2018-05-01T06:14:51.983Z,960.66
2018-05-01T06:15:51.933Z,960.68
2018-05-01T06:16:51.876Z,960.74
2018-05-01T06:17:51.882Z,960.80
2018-05-01T06:18:51.786Z,960.82
2018-05-01T06:19:51.724Z,960.80
2018-05-01T06:20:51.678Z,960.82
2018-05-01T06:21:51.734Z,960.80
2018-05-01T06:22:51.604Z,960.81
2018-05-01T06:23:51.513Z,960.85
2018-05-01T06:24:51.464Z,960.91
2018-05-01T06:25:51.412Z,960.91
2018-05-01T06:26:51.374Z,960.88
2018-05-01T06:27:51.336Z,960.90
2018-05-01T06:28:51.254Z,960.91
2018-05-01T06:29:51.216Z,960.94
2018-05-01T06:30:51.144Z,961.01
2018-05-01T06:31:51.143Z,961.00
2018-05-01T06:32:51.046Z,961.01
2018-05-01T06:33:50.990Z,961.02
2018-05-01T06:34:50.936Z,961.02
2018-05-01T06:35:50.887Z,961.04
2018-05-01T06:36:50.906Z,961.00
2018-05-01T06:37:50.785Z,961.03
2018-05-01T06:38:50.723Z,960.98
2018-05-01T06:39:50.676Z,960.99
2018-05-01T06:40:50.621Z,960.96
2018-05-01T06:41:50.613Z,960.93
2018-05-01T06:42:50.514Z,960.99
2018-05-01T06:43:50.535Z,961.06
2018-05-01T06:44:50.409Z,960.98
2018-05-01T06:45:50.355Z,960.99
2018-05-01T06:46:50.349Z,961.06
2018-05-01T06:47:50.250Z,961.01
2018-05-01T06:48:50.205Z,961.15
2018-05-01T06:49:50.190Z,961.04
2018-05-01T06:50:50.175Z,960.99
2018-05-01T06:51:50.048Z,961.00
2018-05-01T06:52:50.001Z,961.03
2018-05-01T06:53:49.947Z,961.06
2018-05-01T06:54:49.933Z,961.13
2018-05-01T06:55:49.834Z,961.08
2018-05-01T06:56:49.779Z,961.08
2018-05-01T06:57:49.816Z,961.07
2018-05-01T06:58:49.678Z,961.02
2018-05-01T06:59:49.686Z,961.08
2018-05-01T07:00:49.570Z,961.07
2018-05-01T07:01:49.564Z,961.10
2018-05-01T07:02:49.495Z,961.11
2018-05-01T07:03:49.411Z,961.08
2018-05-01T07:04:49.359Z,961.14
2018-05-01T07:05:49.313Z,961.10
2018-05-01T07:06:49.304Z,961.08
2018-05-01T07:07:49.208Z,961.07
2018-05-01T07:08:49.155Z,961.12
2018-05-01T07:09:49.101Z,961.12
2018-05-01T07:10:49.160Z,961.11
2018-05-01T07:11:49.001Z,961.15
2018-05-01T07:12:48.943Z,961.21
2018-05-01T07:13:48.940Z,961.14
2018-05-01T07:14:48.842Z,961.18
2018-05-01T07:15:48.838Z,961.22
2018-05-01T07:16:48.733Z,961.28
2018-05-01T07:17:48.681Z,961.27
2018-05-01T07:18:48.685Z,961.25
2018-05-01T07:19:48.582Z,961.29
2018-05-01T07:20:48.527Z,961.31
2018-05-01T07:21:48.476Z,961.35
2018-05-01T07:22:48.428Z,961.41
2018-05-01T07:23:48.416Z,961.38
2018-05-01T07:24:48.315Z,961.38
2018-05-01T07:25:48.262Z,961.32
2018-05-01T07:26:48.211Z,961.32
2018-05-01T07:27:48.165Z,961.35
2018-05-01T07:28:48.135Z,961.38
2018-05-01T07:29:48.052Z,961.33
2018-05-01T07:30:47.999Z,961.44
2018-05-01T07:31:47.957Z,961.30
2018-05-01T07:32:47.894Z,961.33
2018-05-01T07:33:47.880Z,961.35
2018-05-01T07:34:47.837Z,961.37
2018-05-01T07:35:47.738Z,961.39
2018-05-01T07:36:47.688Z,961.48
2018-05-01T07:37:47.632Z,961.47
2018-05-01T07:38:47.580Z,961.54
2018-05-01T07:39:47.576Z,961.52
2018-05-01T07:40:47.481Z,961.52
2018-05-01T07:41:47.483Z,961.64
2018-05-01T07:42:47.382Z,961.57
2018-05-01T07:43:47.336Z,961.59
2018-05-01T07:44:47.311Z,961.60
2018-05-01T07:45:47.216Z,961.61
2018-05-01T07:46:47.217Z,961.61
2018-05-01T07:47:47.149Z,961.65
2018-05-01T07:48:47.062Z,961.67
2018-05-01T07:49:47.008Z,961.67
2018-05-01T07:50:46.956Z,961.75
2018-05-01T07:51:46.901Z,961.73
2018-05-01T07:52:46.902Z,961.71
2018-05-01T07:53:46.794Z,961.68
2018-05-01T07:54:46.785Z,961.68
2018-05-01T07:55:46.693Z,961.75
2018-05-01T07:56:46.639Z,961.72
2018-05-01T07:57:46.588Z,961.72
2018-05-01T07:58:46.537Z,961.73
2018-05-01T07:59:46.526Z,961.77
2018-05-01T08:00:46.437Z,961.71
2018-05-01T08:01:46.383Z,961.75
2018-05-01T08:02:46.333Z,961.74
2018-05-01T08:03:46.284Z,961.72
2018-05-01T08:04:46.255Z,961.76
2018-05-01T08:05:46.173Z,961.78
2018-05-01T08:06:46.149Z,961.75
2018-05-01T08:07:46.109Z,961.76
2018-05-01T08:08:46.011Z,961.69
2018-05-01T08:09:45.960Z,961.76
2018-05-01T08:10:45.905Z,961.78
2018-05-01T08:11:45.902Z,961.71
2018-05-01T08:12:45.800Z,961.73
2018-05-01T08:13:45.769Z,961.68
2018-05-01T08:14:45.732Z,961.71
2018-05-01T08:15:45.648Z,961.73
2018-05-01T08:16:45.631Z,961.75
2018-05-01T08:17:45.542Z,961.73
2018-05-01T08:18:45.544Z,961.74
2018-05-01T08:19:45.468Z,961.74
2018-05-01T08:20:45.388Z,961.79
2018-05-01T08:21:45.334Z,961.82
2018-05-01T08:22:45.277Z,961.96
2018-05-01T08:23:45.225Z,961.87
2018-05-01T08:24:45.209Z,961.83
2018-05-01T08:25:45.130Z,961.81
2018-05-01T08:26:45.080Z,961.81
2018-05-01T08:27:45.024Z,961.78
2018-05-01T08:28:44.973Z,961.81
2018-05-01T08:29:44.950Z,961.83
2018-05-01T08:30:44.865Z,961.85
2018-05-01T08:31:44.814Z,961.88
2018-05-01T08:32:44.761Z,961.87
2018-05-01T08:33:44.705Z,961.93
2018-05-01T08:34:44.697Z,961.92
2018-05-01T08:35:44.600Z,961.95
2018-05-01T08:36:44.552Z,961.91
2018-05-01T08:37:44.504Z,962.06
2018-05-01T08:38:44.491Z,962.00
2018-05-01T08:39:44.400Z,962.05
2018-05-01T08:40:44.341Z,962.03
2018-05-01T08:41:44.293Z,961.98
2018-05-01T08:42:44.267Z,962.06
2018-05-01T08:43:44.224Z,962.00
2018-05-01T08:44:44.132Z,962.05
2018-05-01T08:45:44.077Z,962.01
2018-05-01T08:46:44.025Z,962.00
2018-05-01T08:47:43.971Z,962.01
2018-05-01T08:48:43.976Z,962.08
2018-05-01T08:49:43.872Z,962.14
2018-05-01T08:50:43.818Z,962.12
2018-05-01T08:51:43.768Z,962.16
2018-05-01T08:52:43.709Z,962.13
2018-05-01T08:53:43.697Z,962.09
2018-05-01T08:54:43.608Z,962.11
2018-05-01T08:55:43.592Z,962.11
2018-05-01T08:56:43.507Z,962.10
2018-05-01T08:57:43.460Z,962.13
2018-05-01T08:58:43.401Z,962.11
2018-05-01T08:59:43.385Z,962.13
2018-05-01T09:00:43.299Z,962.11
2018-05-01T09:01:43.242Z,962.08
2018-05-01T09:02:43.190Z,962.02
2018-05-01T09:03:43.140Z,962.06
2018-05-01T09:04:43.124Z,962.13
2018-05-01T09:05:43.046Z,962.11
2018-05-01T09:06:42.977Z,962.15
2018-05-01T09:07:42.930Z,962.12
2018-05-01T09:08:42.875Z,962.15
2018-05-01T09:09:42.853Z,962.11
2018-05-01T09:10:42.770Z,962.13
2018-05-01T09:11:42.720Z,962.19
2018-05-01T09:12:42.712Z,962.19
2018-05-01T09:13:42.615Z,962.25
2018-05-01T09:14:42.564Z,962.17
2018-05-01T09:15:42.530Z,962.15
2018-05-01T09:16:42.457Z,962.14
2018-05-01T09:17:42.457Z,962.20
2018-05-01T09:18:42.370Z,962.15
2018-05-01T09:19:42.304Z,962.10
2018-05-01T09:20:42.255Z,962.14
2018-05-01T09:21:42.247Z,962.12
2018-05-01T09:22:42.154Z,962.05
2018-05-01T09:23:42.097Z,962.07
2018-05-01T09:24:42.054Z,962.12
2018-05-01T09:25:42.001Z,962.07
2018-05-01T09:26:41.990Z,962.04
2018-05-01T09:27:41.890Z,962.09
2018-05-01T09:28:41.835Z,962.03
2018-05-01T09:29:41.783Z,962.08
2018-05-01T09:30:41.742Z,962.04
2018-05-01T09:31:41.738Z,962.09
2018-05-01T09:32:41.638Z,962.12
2018-05-01T09:33:41.581Z,962.12
2018-05-01T09:34:41.533Z,962.18
2018-05-01T09:35:41.512Z,962.13
2018-05-01T09:36:41.426Z,962.15
2018-05-01T09:37:41.408Z,962.23
2018-05-01T09:38:41.333Z,962.32
2018-05-01T09:39:41.277Z,962.25
2018-05-01T09:40:41.222Z,962.35
2018-05-01T09:41:41.175Z,962.36
2018-05-01T09:42:41.154Z,962.22
2018-05-01T09:43:41.070Z,962.15
2018-05-01T09:44:41.018Z,962.26
2018-05-01T09:45:41.014Z,962.19
2018-05-01T09:46:40.917Z,962.28
2018-05-01T09:47:40.987Z,962.39
2018-05-01T09:48:40.817Z,962.25
2018-05-01T09:49:40.771Z,962.26
2018-05-01T09:50:40.746Z,962.22
2018-05-01T09:51:40.663Z,962.24
2018-05-01T09:52:40.611Z,962.16
2018-05-01T09:53:40.579Z,962.19
2018-05-01T09:54:40.515Z,962.22
2018-05-01T09:55:40.494Z,962.27
2018-05-01T09:56:40.451Z,962.27
2018-05-01T09:57:40.367Z,962.31
2018-05-01T09:58:40.313Z,962.30
2018-05-01T09:59:40.306Z,962.38
2018-05-01T10:00:40.220Z,962.33
2018-05-01T10:01:40.243Z,962.29
2018-05-01T10:02:40.161Z,962.36
2018-05-01T10:03:40.063Z,962.40
2018-05-01T10:04:40.013Z,962.45
2018-05-01T10:05:39.958Z,962.55
2018-05-01T10:06:39.952Z,962.53
2018-05-01T10:07:39.868Z,962.58
2018-05-01T10:08:39.810Z,962.56
2018-05-01T10:09:39.758Z,962.60
2018-05-01T10:10:39.707Z,962.65
2018-05-01T10:11:39.698Z,962.61
2018-05-01T10:12:39.619Z,962.63
2018-05-01T10:13:39.555Z,962.62
2018-05-01T10:14:39.538Z,962.51
2018-05-01T10:15:39.456Z,962.57
2018-05-01T10:16:39.413Z,962.50
2018-05-01T10:17:39.360Z,962.64
2018-05-01T10:18:39.304Z,962.58
2018-05-01T10:19:39.321Z,962.76
2018-05-01T10:20:39.203Z,962.66
2018-05-01T10:21:39.158Z,962.73
2018-05-01T10:22:39.110Z,962.76
2018-05-01T10:23:39.055Z,962.74
2018-05-01T10:24:39.043Z,962.71
2018-05-01T10:25:38.952Z,962.78
2018-05-01T10:26:38.916Z,962.76
2018-05-01T10:27:38.857Z,962.74
2018-05-01T10:28:38.815Z,962.70
2018-05-01T10:29:38.805Z,962.59
2018-05-01T10:30:38.717Z,962.61
2018-05-01T10:31:38.697Z,962.55
2018-05-01T10:32:38.609Z,962.58
2018-05-01T10:33:38.589Z,962.65
2018-05-01T10:34:38.511Z,962.47
2018-05-01T10:35:38.462Z,962.61
2018-05-01T10:36:38.409Z,962.60
2018-05-01T10:37:38.361Z,962.63
2018-05-01T10:38:38.455Z,962.52
2018-05-01T10:39:38.268Z,962.51
2018-05-01T10:40:38.220Z,962.54
2018-05-01T10:41:38.178Z,962.61
2018-05-01T10:42:38.120Z,962.62
2018-05-01T10:43:38.115Z,962.69
2018-05-01T10:44:38.067Z,962.60
2018-05-01T10:45:37.975Z,962.55
2018-05-01T10:46:38.012Z,962.59
2018-05-01T10:47:37.883Z,962.66
2018-05-01T10:48:38.620Z,962.58
2018-05-01T10:49:37.819Z,962.71
2018-05-01T10:50:37.732Z,962.74
2018-05-01T10:51:37.699Z,962.70
2018-05-01T10:52:37.635Z,962.56
2018-05-01T10:53:37.592Z,962.67
2018-05-01T10:54:37.597Z,962.75
2018-05-01T10:55:37.496Z,962.65
2018-05-01T10:56:37.444Z,962.57
2018-05-01T10:57:37.414Z,962.65
2018-05-01T10:58:37.411Z,962.48
2018-05-01T10:59:37.314Z,962.53
2018-05-01T11:00:37.307Z,962.47
2018-05-01T11:01:37.212Z,962.43
2018-05-01T11:02:37.201Z,962.62
2018-05-01T11:03:37.106Z,962.59
2018-05-01T11:04:37.071Z,962.68
2018-05-01T11:05:37.024Z,962.62
2018-05-01T11:06:36.969Z,962.78
2018-05-01T11:07:36.954Z,962.86
2018-05-01T11:08:36.871Z,962.79
2018-05-01T11:09:36.867Z,962.83
2018-05-01T11:10:36.778Z,962.78
2018-05-01T11:11:36.726Z,962.75
2018-05-01T11:12:36.679Z,962.66
2018-05-01T11:13:36.631Z,962.73
2018-05-01T11:14:36.633Z,962.78
2018-05-01T11:15:36.543Z,962.66
2018-05-01T11:16:36.498Z,962.66
2018-05-01T11:17:36.467Z,962.65
2018-05-01T11:18:36.400Z,962.62
2018-05-01T11:19:36.382Z,962.66
2018-05-01T11:20:36.308Z,962.69
2018-05-01T11:21:36.260Z,962.69
2018-05-01T11:22:36.213Z,962.77
2018-05-01T11:23:36.163Z,962.69
2018-05-01T11:24:36.221Z,962.65
2018-05-01T11:25:36.073Z,962.68
2018-05-01T11:26:36.034Z,962.69
2018-05-01T11:27:36.012Z,962.77
2018-05-01T11:28:35.974Z,962.74
2018-05-01T11:29:35.921Z,962.83
2018-05-01T11:30:35.825Z,962.82
2018-05-01T11:31:35.779Z,962.87
2018-05-01T11:32:35.730Z,962.84
2018-05-01T11:33:35.752Z,962.86
2018-05-01T11:34:35.686Z,962.76
2018-05-01T11:35:35.597Z,962.79
2018-05-01T11:36:35.546Z,962.93
2018-05-01T11:37:35.508Z,962.84
2018-05-01T11:38:35.457Z,962.81
2018-05-01T11:39:35.436Z,962.78
2018-05-01T11:40:35.359Z,962.65
2018-05-01T11:41:35.403Z,962.73
2018-05-01T11:42:35.267Z,962.65
2018-05-01T11:43:35.225Z,962.65
2018-05-01T11:44:35.172Z,962.72
2018-05-01T11:45:35.131Z,962.68
2018-05-01T11:46:35.104Z,962.78
2018-05-01T11:47:35.030Z,962.87
2018-05-01T11:48:34.988Z,962.74
2018-05-01T11:49:34.932Z,962.79
2018-05-01T11:50:34.930Z,962.76
2018-05-01T11:51:34.913Z,962.85
2018-05-01T11:52:34.895Z,962.74
2018-05-01T11:53:34.745Z,962.77
2018-05-01T11:54:34.700Z,962.83
2018-05-01T11:55:34.652Z,962.88
2018-05-01T11:56:34.640Z,962.90
2018-05-01T11:57:34.563Z,962.81
2018-05-01T11:58:34.511Z,962.78
2018-05-01T11:59:34.501Z,962.83
2018-05-01T12:00:34.419Z,962.81
2018-05-01T12:01:34.370Z,962.75
2018-05-01T12:02:49.063Z,962.85
2018-05-01T12:03:34.326Z,962.83
2018-05-01T12:04:34.246Z,962.84
2018-05-01T12:05:34.188Z,962.84
2018-05-01T12:06:34.142Z,962.85
2018-05-01T12:07:34.112Z,962.93
2018-05-01T12:08:34.108Z,962.83
2018-05-01T12:09:34.005Z,962.85
2018-05-01T12:10:34.000Z,962.91
2018-05-01T12:11:33.943Z,962.94
2018-05-01T12:12:33.872Z,962.86
2018-05-01T12:13:33.824Z,962.82
2018-05-01T12:14:33.816Z,962.70
2018-05-01T12:15:33.756Z,962.72
2018-05-01T12:16:33.704Z,962.75
2018-05-01T12:17:33.641Z,962.80
2018-05-01T12:18:33.645Z,962.74
2018-05-01T12:19:33.591Z,962.85
2018-05-01T12:20:33.512Z,962.79
2018-05-01T12:21:33.456Z,962.78
2018-05-01T12:22:33.414Z,962.81
2018-05-01T12:23:33.368Z,962.80
2018-05-01T12:24:33.361Z,962.86
2018-05-01T12:25:33.312Z,962.89
2018-05-01T12:26:33.281Z,962.92
2018-05-01T12:27:33.182Z,962.84